Latest Weather Observations for Morawa Airport

IDW60801

Issued at 6:35 am WST Wednesday 30 July 2014 (issued every 30 minutes, with the page automatically refreshed every 10 minutes)

About weather observations | Map of weather stations | Latest weather observations for WA | Other Formats
Station Details ID: 008296 Name: MORAWA AIRPORT Lat: -29.20 Lon: 116.02 Height: 271.4 m
Data from the previous 72 hours. | See also: Recent months at Morawa Airport
Date/Time
WST
Temp
°C
App
Temp
°C
Dew
Point
Rel
Hum
%
Delta-T
°C
Wind Press
QNH
hPa
Press
MSL
hPa
Rain
since 9 am
mm
Dir
 
Spd
km/h
Gust
km/h
Spd
kts
Gust
kts
30/06:30am - - - - - SW 0 0 0 0 1023.6 - 0.2
30/06:00am - - - - - SW 4 4 2 2 1023.6 1023.6 0.2
30/05:30am - - - - - CALM 0 0 0 0 1023.6 - 0.0
30/05:00am - - - - - CALM 0 0 0 0 1023.5 1023.5 0.0
30/04:30am - - - - - CALM 0 0 0 0 1023.1 - 0.0
30/04:00am - - - - - CALM 0 0 0 0 1023.4 1023.4 0.0
30/03:30am - - - - - CALM 0 0 0 0 1023.4 - 0.0
30/03:00am - - - - - CALM 0 0 0 0 1023.6 1023.6 0.0
30/02:30am - - - - - CALM 0 0 0 0 1023.7 - 0.0
30/02:00am - - - - - CALM 0 0 0 0 1023.9 1023.9 0.0
30/01:30am - - - - - CALM 0 0 0 0 1024.0 - 0.0
30/01:00am - - - - - CALM 0 0 0 0 1023.9 1023.9 0.0
30/12:30am - - - - - CALM 0 0 0 0 1024.2 - 0.0
30/12:00am - - - - - SW 0 0 0 0 1024.2 1024.2 0.0
 
Date/Time
WST
Temp
°C
App
Temp
°C
Dew
Point
Rel
Hum
%
Delta-T
°C
Wind Press
QNH
hPa
Press
MSL
hPa
Rain
since 9 am
mm
Dir
 
Spd
km/h
Gust
km/h
Spd
kts
Gust
kts
29/11:30pm - - - - - CALM 0 0 0 0 1024.2 - 0.0
29/11:00pm - - - - - CALM 0 0 0 0 1024.2 1024.2 0.0
29/10:30pm - - - - - SSW 4 4 2 2 1024.4 - 0.0
29/10:00pm - - - - - SSW 2 2 1 1 1024.6 1024.7 0.0
29/09:30pm - - - - - SSW 6 7 3 4 1024.8 - 0.0
29/09:00pm - - - - - SW 7 9 4 5 1024.7 1024.8 0.0
29/08:30pm - - - - - WSW 4 6 2 3 1024.6 - 0.0
29/08:00pm - - - - - WSW 6 7 3 4 1024.7 1024.8 0.0
29/07:30pm - - - - - WSW 6 9 3 5 1024.6 - 0.0
29/07:00pm - - - - - WSW 6 9 3 5 1024.4 1024.4 0.0
29/06:30pm - - - - - SW 7 11 4 6 1024.2 - 0.0
29/06:00pm - - - - - SW 7 11 4 6 1024.1 1024.1 0.0
29/05:30pm - - - - - SW 11 15 6 8 1023.9 - 0.0
29/05:00pm - - - - - SW 7 11 4 6 1023.7 1023.7 0.0
29/04:30pm - - - - - WSW 6 9 3 5 1023.6 - 0.0
29/04:00pm - - - - - SW 4 7 2 4 1023.4 1023.4 0.0
29/03:30pm - - - - - WNW 7 15 4 8 1023.4 - 0.0
29/03:00pm - - - - - W 11 15 6 8 1023.7 1023.7 0.0
29/02:30pm - - - - - SW 4 9 2 5 1023.8 - 0.0
29/02:00pm - - - - - NW 6 11 3 6 1023.8 1023.8 0.0
29/01:30pm - - - - - E 4 9 2 5 1024.1 - 0.0
29/01:00pm - - - - - ESE 4 11 2 6 1024.3 1024.3 0.0
29/12:30pm - - - - - SW 6 11 3 6 1024.7 - 0.0
29/12:00pm - - - - - ENE 4 7 2 4 1025.4 1025.4 0.0
29/11:30am - - - - - ENE 6 9 3 5 1025.9 - 0.0
29/11:00am - - - - - ENE 4 7 2 4 1026.3 1026.3 0.0
29/10:30am - - - - - ENE 6 9 3 5 1026.6 - 0.0
29/10:00am - - - - - NE 6 7 3 4 1026.9 1026.9 0.0
29/09:30am - - - - - NNE 2 4 1 2 1026.8 - 0.0
29/09:00am - - - - - CALM 0 0 0 0 1026.6 1026.6 0.0
29/08:30am - - - - - CALM 0 0 0 0 1026.3 - 0.0
29/08:00am - - - - - N 4 6 2 3 1025.9 1025.9 0.0
29/07:30am - - - - - N 4 6 2 3 1025.5 - 0.0
29/07:00am - - - - - N 7 9 4 5 1025.2 1025.2 0.0
29/06:30am - - - - - N 6 7 3 4 1024.8 - 0.0
29/06:00am - - - - - N 6 7 3 4 1024.7 1024.8 0.0
29/05:30am - - - - - NNW 4 6 2 3 1024.7 - 0.0
29/05:00am - - - - - NNW 6 6 3 3 1024.6 1024.7 0.0
29/04:30am - - - - - CALM 0 0 0 0 1024.6 - 0.0
29/04:00am - - - - - CALM 0 4 0 2 1024.7 1024.8 0.0
29/03:30am - - - - - NNW 4 6 2 3 1024.7 - 0.0
29/03:00am - - - - - WSW 4 7 2 4 1024.7 1024.8 0.0
29/02:30am - - - - - CALM 0 4 0 2 1024.7 - 0.0
29/02:00am - - - - - CALM 0 0 0 0 1024.9 1025.0 0.0
29/01:30am - - - - - CALM 0 0 0 0 1024.7 - 0.0
29/01:00am - - - - - SW 2 2 1 1 1024.9 1025.0 0.0
29/12:30am - - - - - SW 2 4 1 2 1025.2 - 0.0
29/12:00am - - - - - CALM 0 0 0 0 1025.1 1025.1 0.0
 
Date/Time
WST
Temp
°C
App
Temp
°C
Dew
Point
Rel
Hum
%
Delta-T
°C
Wind Press
QNH
hPa
Press
MSL
hPa
Rain
since 9 am
mm
Dir
 
Spd
km/h
Gust
km/h
Spd
kts
Gust
kts
28/11:30pm - - - - - SW 4 6 2 3 1025.5 - 0.0
28/11:00pm - - - - - SW 6 7 3 4 1025.5 1025.5 0.0
28/10:30pm - - - - - SW 7 9 4 5 1025.6 - 0.0
28/10:00pm - - - - - WSW 7 11 4 6 1025.7 1025.7 0.0
28/09:30pm - - - - - WSW 7 9 4 5 1025.6 - 0.0
28/09:00pm - - - - - W 7 7 4 4 1025.6 1025.6 0.0
28/08:30pm - - - - - W 7 7 4 4 1025.3 - 0.0
28/08:00pm - - - - - W 9 11 5 6 1025.1 1025.1 0.0
28/07:30pm - - - - - W 7 9 4 5 1024.8 - 0.0
28/07:00pm - - - - - W 6 7 3 4 1024.6 1024.7 0.0
28/06:30pm - - - - - W 7 9 4 5 1024.4 - 0.0
28/06:00pm - - - - - WSW 6 7 3 4 1024.1 1024.1 0.0
28/05:30pm - - - - - WSW 7 11 4 6 1024.0 - 0.0
28/05:00pm - - - - - WSW 7 11 4 6 1023.8 1023.8 0.0
28/04:30pm - - - - - W 9 15 5 8 1023.7 - 0.0
28/04:00pm - - - - - WSW 9 13 5 7 1023.7 1023.7 0.0
28/03:30pm - - - - - W 7 11 4 6 1023.7 - 0.0
28/03:00pm - - - - - WSW 7 13 4 7 1023.8 1023.8 0.0
28/02:30pm - - - - - W 11 17 6 9 1023.8 - 0.0
28/02:00pm - - - - - SW 9 17 5 9 1024.1 1024.1 0.0
28/01:30pm - - - - - W 9 17 5 9 1024.4 - 0.0
28/01:00pm - - - - - W 4 9 2 5 1024.7 1024.8 0.0
28/12:30pm - - - - - SSE 6 9 3 5 1025.4 - 0.0
28/12:00pm - - - - - SSW 7 13 4 7 1025.5 1025.5 0.0
28/11:30am - - - - - WSW 6 11 3 6 1026.0 - 0.0
28/11:00am - - - - - NNE 4 9 2 5 1026.1 1026.1 0.0
28/10:30am - - - - - N 4 6 2 3 1026.5 - 0.0
28/10:00am - - - - - N 6 7 3 4 1026.4 1026.4 0.0
28/09:30am - - - - - N 6 7 3 4 1026.1 - 0.0
28/09:00am - - - - - N 6 7 3 4 1025.9 1025.9 0.0
28/08:30am - - - - - N 4 7 2 4 1025.9 - 0.0
28/08:00am - - - - - NNW 4 6 2 3 1025.6 1025.6 0.0
28/07:30am - - - - - NNW 6 7 3 4 1025.4 - 0.0
28/07:00am - - - - - NNW 7 7 4 4 1024.9 1025.0 0.0
28/06:30am - - - - - NNW 9 13 5 7 1024.5 - 0.0
28/06:00am - - - - - NNW 4 7 2 4 1024.5 1024.6 0.0
28/05:30am - - - - - NNW 7 9 4 5 1024.3 - 0.0
28/05:00am - - - - - NNW 7 9 4 5 1024.4 1024.4 0.0
28/04:30am - - - - - NNW 7 9 4 5 1024.3 - 0.0
28/04:00am - - - - - NNW 7 9 4 5 1024.2 1024.2 0.0
28/03:30am - - - - - N 7 9 4 5 1024.3 - 0.0
28/03:00am - - - - - SW 6 7 3 4 1024.4 1024.4 0.0
28/02:30am - - - - - SW 2 4 1 2 1024.6 - 0.0
28/02:00am - - - - - SSW 2 4 1 2 1024.5 1024.6 0.0
28/01:30am - - - - - SSW 2 4 1 2 1024.5 - 0.0
28/01:00am - - - - - SSW 6 7 3 4 1024.7 1024.8 0.0
28/12:30am - - - - - S 2 4 1 2 1024.7 - 0.0
28/12:00am - - - - - S 6 7 3 4 1024.7 1024.8 0.0
 
Date/Time
WST
Temp
°C
App
Temp
°C
Dew
Point
Rel
Hum
%
Delta-T
°C
Wind Press
QNH
hPa
Press
MSL
hPa
Rain
since 9 am
mm
Dir
 
Spd
km/h
Gust
km/h
Spd
kts
Gust
kts
27/11:30pm - - - - - W 6 9 3 5 1024.7 - 0.0
27/11:00pm - - - - - W 7 9 4 5 1024.8 1024.9 0.0
27/10:30pm - - - - - W 7 9 4 5 1025.1 - 0.0
27/10:00pm - - - - - W 9 9 5 5 1024.9 1025.0 0.0
27/09:30pm - - - - - W 9 9 5 5 1024.8 - 0.0
27/09:00pm - - - - - W 9 11 5 6 1024.8 1024.9 0.0
27/08:30pm - - - - - W 9 11 5 6 1024.8 - 0.0
27/08:00pm - - - - - W 9 11 5 6 1025.1 1025.1 0.0
27/07:30pm - - - - - WNW 7 7 4 4 1024.6 - 0.0
27/07:00pm - - - - - WNW 7 7 4 4 1024.4 1024.4 0.0
27/06:30pm - - - - - WNW 7 7 4 4 1024.1 - 0.0
27/06:00pm - - - - - W 4 6 2 3 1023.8 1023.8 0.0
27/05:30pm - - - - - W 4 6 2 3 1023.6 - 0.0
27/05:00pm - - - - - W 7 9 4 5 1023.4 1023.4 0.0
27/04:30pm - - - - - W 11 15 6 8 1023.3 - 0.0
27/04:00pm - - - - - WSW 11 15 6 8 1023.0 1023.0 0.0
27/03:30pm - - - - - SW 13 20 7 11 1022.8 - 0.0
27/03:00pm - - - - - SW 13 20 7 11 1022.7 1022.7 0.0
27/02:30pm - - - - - W 11 22 6 12 1022.5 - 0.0
27/02:00pm - - - - - WNW 7 13 4 7 1022.6 1022.6 0.0
27/01:30pm - - - - - W 11 19 6 10 1022.9 - 0.0
27/01:00pm - - - - - W 11 15 6 8 1023.3 1023.3 0.0
27/12:30pm - - - - - W 9 13 5 7 1023.7 - 0.0
27/12:00pm - - - - - W 9 15 5 8 1024.1 1024.1 0.0
27/11:30am - - - - - W 9 19 5 10 1024.5 - 0.0
27/11:00am - - - - - W 9 17 5 9 1024.8 1024.9 0.0
27/10:30am - - - - - SW 2 4 1 2 1025.1 - 0.0
27/10:00am 15.7 14.9 8.2 61 3.8 SSW 2 6 1 3 1025.1 1025.1 0.0
27/09:30am 14.9 14.0 7.9 63 3.5 S 2 6 1 3 1024.8 - 0.0
27/09:00am 14.9 14.8 9.3 69 2.9 CALM 0 4 0 2 1024.6 1024.7 6.2
27/08:30am 13.4 14.5 13.4 100 0.0 CALM 0 2 0 1 1024.3 - 6.2
27/08:00am 11.4 11.8 11.4 100 0.0 CALM 0 0 0 0 1024.0 1024.0 6.2
27/07:30am - - - - - CALM 0 0 0 0 1023.7 - 6.2
27/07:00am - - - - - CALM 0 0 0 0 1023.4 1023.4 6.2

Other Formats:

Comma delimited format used in spreadsheet applications
http://www.bom.gov.au/fwo/IDW60801/IDW60801.94417.axf

JavaScript Object Notation format (JSON) in row-major order
http://www.bom.gov.au/fwo/IDW60801/IDW60801.94417.json